createdAt,value
2023-09-08T00:01:29.656Z,101225.61
2023-09-08T00:03:57.743Z,101222.86
2023-09-08T00:06:25.618Z,101224.46
2023-09-08T00:08:53.516Z,101221.26
2023-09-08T00:11:21.489Z,101218.23
2023-09-08T00:13:51.486Z,101217.51
2023-09-08T00:16:19.637Z,101217.94
2023-09-08T00:18:47.854Z,101215.71
2023-09-08T00:21:15.695Z,101217.88
2023-09-08T00:23:43.472Z,101218.48
2023-09-08T00:26:11.439Z,101216.81
2023-09-08T00:28:39.616Z,101212.82
2023-09-08T00:31:07.409Z,101214.20
2023-09-08T00:33:35.285Z,101219.78
2023-09-08T00:36:03.358Z,101217.64
2023-09-08T00:38:32.075Z,101218.27
2023-09-08T00:41:02.147Z,101216.05
2023-09-08T00:43:30.007Z,101210.31
2023-09-08T00:46:00.510Z,101209.73
2023-09-08T00:48:28.770Z,101206.96
2023-09-08T00:50:57.507Z,101198.06
2023-09-08T00:53:25.511Z,101200.52
2023-09-08T00:55:53.692Z,101203.06
2023-09-08T00:58:21.898Z,101203.75
2023-09-08T01:00:50.213Z,101206.56
2023-09-08T01:03:18.266Z,101205.79
2023-09-08T01:05:48.073Z,101209.73
2023-09-08T01:08:16.535Z,101213.14
2023-09-08T01:10:44.485Z,101215.91
2023-09-08T01:13:12.625Z,101213.27
2023-09-08T01:15:40.630Z,101208.83
2023-09-08T01:18:09.014Z,101210.94
2023-09-08T01:21:06.856Z,101206.94
2023-09-08T01:23:56.756Z,101203.75
2023-09-08T01:26:28.449Z,101202.52
2023-09-08T01:28:56.951Z,101197.60
2023-09-08T01:31:24.976Z,101197.78
2023-09-08T01:33:53.098Z,101198.30
2023-09-08T01:36:21.224Z,101197.82
2023-09-08T01:38:49.887Z,101198.77
2023-09-08T01:41:17.728Z,101197.17
2023-09-08T01:43:45.635Z,101196.70
2023-09-08T01:46:14.149Z,101196.84
2023-09-08T01:48:42.186Z,101197.95
2023-09-08T01:51:10.135Z,101201.21
2023-09-08T01:53:37.984Z,101200.16
2023-09-08T01:56:09.295Z,101196.84
2023-09-08T01:58:37.408Z,101198.11
2023-09-08T02:01:07.217Z,101198.86
2023-09-08T02:03:35.207Z,101203.35
2023-09-08T02:06:03.084Z,101198.31
2023-09-08T02:08:30.864Z,101197.08
2023-09-08T02:10:58.793Z,101196.54
2023-09-08T02:13:26.778Z,101193.89
2023-09-08T02:15:54.641Z,101198.45
2023-09-08T02:18:22.760Z,101193.02
2023-09-08T02:20:53.047Z,101196.05
2023-09-08T02:23:20.874Z,101194.08
2023-09-08T02:25:48.854Z,101194.80
2023-09-08T02:28:17.104Z,101192.23
2023-09-08T02:30:44.904Z,101191.55
2023-09-08T02:33:12.907Z,101190.23
2023-09-08T02:35:40.874Z,101189.65
2023-09-08T02:38:09.274Z,101184.89
2023-09-08T02:40:37.428Z,101185.27
2023-09-08T02:43:05.798Z,101185.05
2023-09-08T02:45:36.026Z,101183.73
2023-09-08T02:48:04.570Z,101181.12
2023-09-08T02:50:32.863Z,101184.73
2023-09-08T02:53:00.857Z,101185.80
2023-09-08T02:55:28.820Z,101183.68
2023-09-08T02:57:57.729Z,101184.57
2023-09-08T03:00:26.485Z,101180.17
2023-09-08T03:02:54.480Z,101176.89
2023-09-08T03:05:22.475Z,101179.13
2023-09-08T03:07:50.758Z,101175.34
2023-09-08T03:10:18.804Z,101175.13
2023-09-08T03:12:48.086Z,101177.36
2023-09-08T03:15:16.272Z,101172.67
2023-09-08T03:17:44.308Z,101172.41
2023-09-08T03:20:12.636Z,101167.58
2023-09-08T03:22:40.754Z,101165.02
2023-09-08T03:25:09.160Z,101165.77
2023-09-08T03:27:36.991Z,101164.84
2023-09-08T03:30:05.877Z,101166.30
2023-09-08T03:32:33.887Z,101163.69
2023-09-08T03:35:01.909Z,101164.21
2023-09-08T03:37:29.803Z,101164.67
2023-09-08T03:39:57.761Z,101159.88
2023-09-08T03:42:26.023Z,101161.06
2023-09-08T03:44:53.895Z,101161.34
2023-09-08T03:47:21.922Z,101166.65
2023-09-08T03:49:49.852Z,101174.89
2023-09-08T03:52:17.752Z,101175.67
2023-09-08T03:54:47.634Z,101172.25
2023-09-08T03:57:15.513Z,101176.02
2023-09-08T03:59:43.497Z,101176.42
2023-09-08T04:02:11.340Z,101172.73
2023-09-08T04:04:39.150Z,101169.29
2023-09-08T04:07:07.036Z,101168.34
2023-09-08T04:09:34.895Z,101171.56
2023-09-08T04:12:03.056Z,101169.80
2023-09-08T04:14:31.756Z,101170.61
2023-09-08T04:16:59.629Z,101171.71
2023-09-08T04:19:27.514Z,101169.61
2023-09-08T04:21:55.806Z,101168.05
2023-09-08T04:24:23.746Z,101165.61
2023-09-08T04:26:51.591Z,101161.77
2023-09-08T04:29:20.141Z,101158.80
2023-09-08T04:31:48.042Z,101160.66
2023-09-08T04:34:16.206Z,101159.02
2023-09-08T04:36:43.998Z,101162.46
2023-09-08T04:39:12.823Z,101165.81
2023-09-08T04:41:40.795Z,101164.66
2023-09-08T04:44:08.768Z,101154.70
2023-09-08T04:46:36.879Z,101163.45
2023-09-08T04:49:05.209Z,101162.71
2023-09-08T04:51:33.121Z,101161.71
2023-09-08T04:54:00.986Z,101159.84
2023-09-08T04:56:29.217Z,101161.39
2023-09-08T04:58:57.414Z,101159.81
2023-09-08T05:01:25.255Z,101160.21
2023-09-08T05:03:53.297Z,101160.11
2023-09-08T05:06:21.418Z,101162.90
2023-09-08T05:08:49.235Z,101161.48
2023-09-08T05:11:18.129Z,101162.31
2023-09-08T05:13:47.930Z,101161.55
2023-09-08T05:16:15.799Z,101159.84
2023-09-08T05:18:43.980Z,101164.38
2023-09-08T05:21:11.950Z,101166.22
2023-09-08T05:23:39.815Z,101165.94
2023-09-08T05:26:07.652Z,101160.59
2023-09-08T05:28:38.969Z,101157.63
2023-09-08T05:31:08.042Z,101159.11
2023-09-08T05:33:36.115Z,101161.47
2023-09-08T05:36:03.924Z,101163.05
2023-09-08T05:38:32.083Z,101164.23
2023-09-08T05:41:00.102Z,101166.55
2023-09-08T05:43:27.969Z,101166.24
2023-09-08T05:45:56.457Z,101165.53
2023-09-08T05:48:24.530Z,101170.19
2023-09-08T05:50:52.378Z,101174.08
2023-09-08T05:53:20.280Z,101172.98
2023-09-08T05:55:48.361Z,101173.30
2023-09-08T05:58:16.300Z,101170.67
2023-09-08T06:00:44.514Z,101168.98
2023-09-08T06:03:12.669Z,101166.70
2023-09-08T06:05:40.795Z,101169.10
2023-09-08T06:08:08.604Z,101169.63
2023-09-08T06:10:36.603Z,101168.14
2023-09-08T06:13:04.748Z,101164.26
2023-09-08T06:15:32.584Z,101161.34
2023-09-08T06:18:00.613Z,101162.59
2023-09-08T06:20:28.736Z,101157.40
2023-09-08T06:22:56.812Z,101155.17
2023-09-08T06:25:24.730Z,101149.93
2023-09-08T06:27:52.694Z,101156.16
2023-09-08T06:30:20.904Z,101156.64
2023-09-08T06:32:49.092Z,101160.91
2023-09-08T06:35:17.357Z,101158.18
2023-09-08T06:37:45.460Z,101153.63
2023-09-08T06:40:14.500Z,101159.21
2023-09-08T06:42:42.492Z,101159.27
2023-09-08T06:45:10.868Z,101164.19
2023-09-08T06:47:39.257Z,101164.73
2023-09-08T06:50:08.191Z,101163.15
2023-09-08T06:52:36.177Z,101163.98
2023-09-08T06:55:04.273Z,101168.73
2023-09-08T06:57:32.316Z,101165.67
2023-09-08T07:00:00.223Z,101166.52
2023-09-08T07:02:29.311Z,101167.48
2023-09-08T07:04:57.671Z,101165.82
2023-09-08T07:07:26.444Z,101165.20
2023-09-08T07:09:54.371Z,101167.68
2023-09-08T07:12:22.500Z,101169.17
2023-09-08T07:14:50.666Z,101170.03
2023-09-08T07:17:18.693Z,101169.11
2023-09-08T07:19:46.625Z,101169.28
2023-09-08T07:22:14.732Z,101168.71
2023-09-08T07:24:42.764Z,101167.48
2023-09-08T07:27:10.747Z,101167.00
2023-09-08T07:29:38.678Z,101169.79
2023-09-08T07:32:06.684Z,101169.86
2023-09-08T07:34:34.990Z,101168.92
2023-09-08T07:37:02.929Z,101169.15
2023-09-08T07:39:31.560Z,101168.00
2023-09-08T07:42:01.919Z,101169.20
2023-09-08T07:44:30.226Z,101167.71
2023-09-08T07:46:58.231Z,101172.69
2023-09-08T07:49:26.460Z,101170.75
2023-09-08T07:51:54.440Z,101174.13
2023-09-08T07:54:22.381Z,101174.34
2023-09-08T07:56:50.456Z,101177.41
2023-09-08T07:59:18.398Z,101174.77
2023-09-08T08:01:46.425Z,101171.87
2023-09-08T08:04:14.560Z,101175.02
2023-09-08T08:06:42.678Z,101171.55
2023-09-08T08:09:11.630Z,101170.73
2023-09-08T08:11:39.549Z,101170.34
2023-09-08T08:14:07.511Z,101167.89
2023-09-08T08:16:36.001Z,101166.77
2023-09-08T08:19:04.662Z,101167.14
2023-09-08T08:21:32.670Z,101167.39
2023-09-08T08:24:00.655Z,101166.46
2023-09-08T08:26:31.123Z,101164.13
2023-09-08T08:28:59.109Z,101165.39
2023-09-08T08:31:27.049Z,101162.10
2023-09-08T08:33:55.148Z,101160.34
2023-09-08T08:36:23.423Z,101156.47
2023-09-08T08:38:51.624Z,101152.17
2023-09-08T08:41:19.472Z,101155.25
2023-09-08T08:43:48.756Z,101152.72
2023-09-08T08:46:17.760Z,101148.52
2023-09-08T08:48:47.091Z,101151.77
2023-09-08T08:51:17.163Z,101149.11
2023-09-08T08:53:45.260Z,101147.22
2023-09-08T08:56:13.244Z,101141.91
2023-09-08T08:58:42.886Z,101139.99
2023-09-08T09:01:12.715Z,101138.90
2023-09-08T09:03:41.660Z,101136.48
2023-09-08T09:06:11.694Z,101134.18
2023-09-08T09:08:40.398Z,101134.07
2023-09-08T09:11:08.562Z,101131.38
2023-09-08T09:13:36.614Z,101131.46
2023-09-08T09:16:05.620Z,101132.41
2023-09-08T09:18:34.045Z,101128.77
2023-09-08T09:21:02.879Z,101125.52
2023-09-08T09:23:35.084Z,101121.25
2023-09-08T09:26:05.397Z,101117.16
2023-09-08T09:28:34.349Z,101121.00
2023-09-08T09:31:02.679Z,101114.82
2023-09-08T09:33:31.390Z,101113.73
2023-09-08T09:36:00.486Z,101109.38
2023-09-08T09:38:29.127Z,101112.16
2023-09-08T09:40:57.714Z,101108.72
2023-09-08T09:43:25.857Z,101108.65
2023-09-08T09:45:54.757Z,101105.89
2023-09-08T09:48:25.296Z,101100.45
2023-09-08T09:50:53.218Z,101103.27
2023-09-08T09:53:21.899Z,101102.70
2023-09-08T09:55:49.884Z,101099.05
2023-09-08T09:58:19.600Z,101095.66
2023-09-08T10:00:49.770Z,101096.84
2023-09-08T10:03:19.790Z,101090.13
2023-09-08T10:05:49.607Z,101086.68
2023-09-08T10:08:17.777Z,101087.73
2023-09-08T10:10:47.677Z,101082.17
2023-09-08T10:13:19.835Z,101080.50
2023-09-08T10:15:48.787Z,101079.52
2023-09-08T10:18:18.043Z,101076.94
2023-09-08T10:20:46.327Z,101081.66
2023-09-08T10:23:24.263Z,101079.85
2023-09-08T10:25:56.080Z,101077.86
2023-09-08T10:28:24.516Z,101073.38
2023-09-08T10:30:53.168Z,101069.77
2023-09-08T10:33:21.512Z,101068.52
2023-09-08T10:35:49.529Z,101066.84
2023-09-08T10:38:27.674Z,101062.86
2023-09-08T10:41:18.633Z,101061.08
2023-09-08T10:43:47.626Z,101063.57
2023-09-08T10:46:27.650Z,101061.70
2023-09-08T10:48:56.420Z,101058.23
2023-09-08T10:51:25.970Z,101058.67
2023-09-08T10:53:53.833Z,101055.20
2023-09-08T10:56:22.078Z,101052.11
2023-09-08T10:58:53.744Z,101052.18
2023-09-08T11:01:28.688Z,101050.38
2023-09-08T11:03:59.506Z,101053.98
2023-09-08T11:06:31.911Z,101051.13
2023-09-08T11:09:08.201Z,101046.41
2023-09-08T11:11:38.089Z,101047.44
2023-09-08T11:14:06.154Z,101041.99
2023-09-08T11:16:34.645Z,101038.04
2023-09-08T11:19:06.174Z,101036.29
2023-09-08T11:21:36.609Z,101037.63
2023-09-08T11:24:08.175Z,101038.54
2023-09-08T11:26:36.112Z,101037.57
2023-09-08T11:29:04.109Z,101035.05
2023-09-08T11:31:33.046Z,101035.20
2023-09-08T11:34:01.416Z,101036.15
2023-09-08T11:36:30.669Z,101033.61
2023-09-08T11:38:58.676Z,101036.95
2023-09-08T11:41:26.622Z,101033.67
2023-09-08T11:43:54.637Z,101033.09
2023-09-08T11:46:22.915Z,101029.87
2023-09-08T11:48:51.028Z,101025.63
2023-09-08T11:51:23.930Z,101024.92
2023-09-08T11:53:51.870Z,101023.48
2023-09-08T11:56:19.679Z,101023.55
2023-09-08T11:58:48.717Z,101025.01
2023-09-08T12:01:17.253Z,101022.05
2023-09-08T12:04:03.267Z,101020.57
2023-09-08T12:06:31.463Z,101015.48
2023-09-08T12:09:04.060Z,101016.42
2023-09-08T12:11:36.597Z,101012.67
2023-09-08T12:14:09.309Z,101009.37
2023-09-08T12:16:37.714Z,101007.66
2023-09-08T12:19:05.990Z,101006.02
2023-09-08T12:21:44.450Z,101005.14
2023-09-08T12:24:15.128Z,101000.52
2023-09-08T12:26:43.140Z,101002.02
2023-09-08T12:29:14.151Z,101001.37
2023-09-08T12:31:42.243Z,100998.60
2023-09-08T12:34:10.449Z,100999.39
2023-09-08T12:36:39.258Z,100991.98
2023-09-08T12:39:07.221Z,100992.77
2023-09-08T12:41:35.218Z,100994.67
2023-09-08T12:44:03.276Z,100990.55
2023-09-08T12:46:33.378Z,100989.70
2023-09-08T12:49:01.626Z,100988.39
2023-09-08T12:51:29.594Z,100988.20
2023-09-08T12:53:57.593Z,100986.15
2023-09-08T12:56:25.526Z,100985.99
2023-09-08T12:58:54.092Z,100983.98
2023-09-08T13:01:22.967Z,100981.16
2023-09-08T13:03:50.861Z,100982.63
2023-09-08T13:06:18.867Z,100978.79
2023-09-08T13:08:47.077Z,100974.45
2023-09-08T13:11:15.068Z,100976.55
2023-09-08T13:13:43.420Z,100973.48
2023-09-08T13:16:11.448Z,100974.09
2023-09-08T13:18:40.230Z,100969.89
2023-09-08T13:21:08.384Z,100972.58
2023-09-08T13:23:36.286Z,100968.84
2023-09-08T13:26:04.156Z,100968.52
2023-09-08T13:28:32.249Z,100961.80
2023-09-08T13:31:00.401Z,100959.21
2023-09-08T13:33:28.524Z,100955.50
2023-09-08T13:35:57.243Z,100951.00
2023-09-08T13:38:25.420Z,100945.58
2023-09-08T13:40:54.398Z,100933.04
2023-09-08T13:43:23.627Z,100935.53
2023-09-08T13:45:52.296Z,100937.38
2023-09-08T13:48:21.533Z,100934.11
2023-09-08T13:50:51.020Z,100936.59
2023-09-08T13:53:20.619Z,100933.95
2023-09-08T13:55:51.539Z,100932.41
2023-09-08T13:58:20.728Z,100935.38
2023-09-08T14:00:53.554Z,100928.62
2023-09-08T14:03:23.444Z,100924.38
2023-09-08T14:05:54.601Z,100920.58
2023-09-08T14:13:26.653Z,100915.87
2023-09-08T14:15:55.593Z,100914.04
2023-09-08T14:18:23.648Z,100913.70
2023-09-08T14:20:51.637Z,100912.07
2023-09-08T14:23:19.600Z,100910.79
2023-09-08T14:25:47.602Z,100912.63
2023-09-08T14:28:15.470Z,100911.38
2023-09-08T14:30:43.980Z,100912.55
2023-09-08T14:33:12.255Z,100909.09
2023-09-08T14:35:47.431Z,100908.05
2023-09-08T14:38:17.892Z,100902.66
2023-09-08T14:40:47.039Z,100906.14
2023-09-08T14:43:15.020Z,100900.90
2023-09-08T14:45:43.294Z,100902.25
2023-09-08T14:48:11.192Z,100903.22
2023-09-08T14:50:39.651Z,100903.34
2023-09-08T14:53:08.146Z,100899.63
2023-09-08T14:55:36.616Z,100899.66
2023-09-08T14:58:04.813Z,100896.41
2023-09-08T15:00:33.061Z,100898.29
2023-09-08T15:03:02.768Z,100895.98
2023-09-08T15:05:31.975Z,100890.69
2023-09-08T15:08:00.695Z,100893.70
2023-09-08T15:10:29.209Z,100891.36
2023-09-08T15:12:57.360Z,100893.58
2023-09-08T15:15:25.451Z,100893.27
2023-09-08T15:17:56.825Z,100892.77
2023-09-08T15:20:24.819Z,100891.11
2023-09-08T15:22:54.851Z,100889.72
2023-09-08T15:25:22.720Z,100890.61
2023-09-08T15:27:50.917Z,100888.04
2023-09-08T15:30:18.884Z,100887.38
2023-09-08T15:32:47.236Z,100887.27
2023-09-08T15:35:15.361Z,100884.86
2023-09-08T15:37:43.402Z,100886.86
2023-09-08T15:40:15.480Z,100887.55
2023-09-08T15:42:44.747Z,100887.35
2023-09-08T15:45:15.133Z,100883.63
2023-09-08T15:47:43.417Z,100884.80
2023-09-08T15:50:12.258Z,100884.67
2023-09-08T15:52:40.274Z,100881.34
2023-09-08T15:55:08.434Z,100879.69
2023-09-08T15:57:36.542Z,100876.87
2023-09-08T16:00:04.895Z,100875.47
2023-09-08T16:02:32.927Z,100875.09
2023-09-08T16:05:01.237Z,100874.17
2023-09-08T16:07:29.147Z,100871.67
2023-09-08T16:09:57.016Z,100868.40
2023-09-08T16:12:25.039Z,100867.41
2023-09-08T16:14:53.222Z,100866.30
2023-09-08T16:17:21.172Z,100862.55
2023-09-08T16:19:49.690Z,100861.95
2023-09-08T16:22:17.589Z,100863.83
2023-09-08T16:24:46.228Z,100862.92
2023-09-08T16:27:14.541Z,100861.55
2023-09-08T16:29:43.180Z,100862.11
2023-09-08T16:32:12.242Z,100861.98
2023-09-08T16:34:40.454Z,100863.86
2023-09-08T16:37:08.609Z,100865.58
2023-09-08T16:39:36.521Z,100862.80
2023-09-08T16:42:04.980Z,100864.61
2023-09-08T16:44:32.977Z,100865.80
2023-09-08T16:47:00.985Z,100861.98
2023-09-08T16:49:29.435Z,100860.58
2023-09-08T16:51:57.988Z,100859.55
2023-09-08T16:54:27.042Z,100858.81
2023-09-08T16:56:54.967Z,100858.06
2023-09-08T16:59:23.463Z,100854.94
2023-09-08T17:01:51.451Z,100850.73
2023-09-08T17:04:19.747Z,100851.48
2023-09-08T17:06:49.262Z,100852.70
2023-09-08T17:09:18.558Z,100855.27
2023-09-08T17:11:46.518Z,100852.48
2023-09-08T17:14:14.594Z,100855.36
2023-09-08T17:16:42.575Z,100857.39
2023-09-08T17:19:11.319Z,100856.86
2023-09-08T17:21:39.356Z,100853.72
2023-09-08T17:24:07.697Z,100854.77
2023-09-08T17:26:35.779Z,100856.75
2023-09-08T17:29:03.686Z,100859.24
2023-09-08T17:31:31.855Z,100859.61
2023-09-08T17:33:59.748Z,100864.16
2023-09-08T17:36:27.951Z,100863.11
2023-09-08T17:38:55.774Z,100865.18
2023-09-08T17:41:23.612Z,100865.66
2023-09-08T17:43:51.551Z,100864.77
2023-09-08T17:46:19.563Z,100860.83
2023-09-08T17:48:47.672Z,100861.84
2023-09-08T17:51:15.828Z,100864.41
2023-09-08T17:53:43.761Z,100867.39
2023-09-08T17:56:11.595Z,100869.04
2023-09-08T17:58:39.603Z,100872.34
2023-09-08T18:01:07.526Z,100876.96
2023-09-08T18:03:36.086Z,100875.86
2023-09-08T18:06:05.708Z,100879.30
2023-09-08T18:08:33.741Z,100879.46
2023-09-08T18:11:03.773Z,100876.84
2023-09-08T18:13:31.872Z,100880.34
2023-09-08T18:16:07.175Z,100880.31
2023-09-08T18:18:35.952Z,100878.30
2023-09-08T18:21:03.818Z,100877.09
2023-09-08T18:23:31.961Z,100881.45
2023-09-08T18:25:59.843Z,100878.41
2023-09-08T18:28:27.898Z,100882.61
2023-09-08T18:30:55.817Z,100884.29
2023-09-08T18:33:23.924Z,100886.10
2023-09-08T18:35:52.095Z,100889.06
2023-09-08T18:38:20.095Z,100890.55
2023-09-08T18:40:48.224Z,100886.79
2023-09-08T18:43:16.745Z,100889.70
2023-09-08T18:45:44.867Z,100886.80
2023-09-08T18:48:13.166Z,100888.20
2023-09-08T18:50:41.744Z,100887.30
2023-09-08T18:53:11.005Z,100886.16
2023-09-08T18:55:39.540Z,100888.81
2023-09-08T18:58:09.046Z,100886.99
2023-09-08T19:00:37.242Z,100891.93
2023-09-08T19:03:05.603Z,100892.39
2023-09-08T19:05:33.809Z,100894.49
2023-09-08T19:08:02.349Z,100900.81
2023-09-08T19:10:31.255Z,100896.90
2023-09-08T19:12:59.264Z,100894.57
2023-09-08T19:15:27.165Z,100893.17
2023-09-08T19:17:55.707Z,100895.51
2023-09-08T19:20:24.033Z,100887.45
2023-09-08T19:22:52.024Z,100887.52
2023-09-08T19:25:20.447Z,100889.16
2023-09-08T19:27:48.352Z,100891.16
2023-09-08T19:30:17.304Z,100895.34
2023-09-08T19:32:45.646Z,100895.29
2023-09-08T19:35:13.689Z,100894.39
2023-09-08T19:37:41.639Z,100891.74
2023-09-08T19:40:09.841Z,100890.29
2023-09-08T19:42:37.862Z,100892.48
2023-09-08T19:45:06.384Z,100888.64
2023-09-08T19:47:34.368Z,100891.04
2023-09-08T19:50:02.627Z,100889.66
2023-09-08T19:52:30.601Z,100894.16
2023-09-08T19:54:58.919Z,100892.03
2023-09-08T19:57:26.821Z,100892.19
2023-09-08T19:59:54.909Z,100896.56
2023-09-08T20:02:22.921Z,100893.29
2023-09-08T20:04:50.793Z,100895.23
2023-09-08T20:07:19.237Z,100895.79
2023-09-08T20:09:47.058Z,100889.38
2023-09-08T20:12:14.999Z,100887.70
2023-09-08T20:14:43.134Z,100890.59
2023-09-08T20:17:11.045Z,100890.18
2023-09-08T20:19:39.131Z,100894.23
2023-09-08T20:22:07.205Z,100892.23
2023-09-08T20:24:35.463Z,100892.87
2023-09-08T20:27:03.538Z,100892.09
2023-09-08T20:29:31.656Z,100891.29
2023-09-08T20:31:59.841Z,100892.42
2023-09-08T20:34:27.723Z,100893.16
2023-09-08T20:36:56.096Z,100892.10
2023-09-08T20:39:24.303Z,100889.55
2023-09-08T20:41:52.370Z,100889.27
2023-09-08T20:44:20.266Z,100890.30
2023-09-08T20:46:48.219Z,100889.90
2023-09-08T20:49:16.104Z,100893.34
2023-09-08T20:51:43.941Z,100889.84
2023-09-08T20:54:12.017Z,100891.57
2023-09-08T20:56:40.151Z,100893.14
2023-09-08T20:59:08.098Z,100897.88
2023-09-08T21:01:37.070Z,100896.29
2023-09-08T21:04:05.269Z,100897.27
2023-09-08T21:06:33.149Z,100897.48
2023-09-08T21:09:01.324Z,100902.16
2023-09-08T21:11:29.293Z,100899.54
2023-09-08T21:13:57.748Z,100900.59
2023-09-08T21:16:25.780Z,100897.39
2023-09-08T21:18:54.707Z,100896.05
2023-09-08T21:21:22.569Z,100900.77
2023-09-08T21:23:50.492Z,100900.24
2023-09-08T21:26:18.413Z,100896.66
2023-09-08T21:28:46.432Z,100895.48
2023-09-08T21:31:14.672Z,100896.84
2023-09-08T21:33:43.089Z,100897.96
2023-09-08T21:36:15.814Z,100897.11
2023-09-08T21:38:44.410Z,100895.48
2023-09-08T21:41:15.716Z,100894.52
2023-09-08T21:43:43.557Z,100888.70
2023-09-08T21:46:12.050Z,100892.19
2023-09-08T21:48:40.538Z,100893.10
2023-09-08T21:51:10.238Z,100890.61
2023-09-08T21:53:38.513Z,100894.60
2023-09-08T21:56:07.315Z,100890.45
2023-09-08T21:58:35.515Z,100891.88
2023-09-08T22:01:04.155Z,100894.55
2023-09-08T22:03:32.537Z,100893.55
2023-09-08T22:06:00.862Z,100895.14
2023-09-08T22:08:28.926Z,100899.77
2023-09-08T22:11:03.356Z,100893.77
2023-09-08T22:13:32.357Z,100890.61
2023-09-08T22:16:03.309Z,100895.61
2023-09-08T22:18:34.372Z,100894.60
2023-09-08T22:21:02.395Z,100892.54
2023-09-08T22:23:30.500Z,100888.45
2023-09-08T22:25:58.427Z,100886.38
2023-09-08T22:28:26.334Z,100888.16
2023-09-08T22:30:54.962Z,100884.66
2023-09-08T22:33:23.271Z,100886.45
2023-09-08T22:35:51.358Z,100879.94
2023-09-08T22:38:19.354Z,100879.04
2023-09-08T22:40:47.208Z,100877.23
2023-09-08T22:43:15.590Z,100874.98
2023-09-08T22:45:44.122Z,100876.37
2023-09-08T22:48:12.186Z,100874.34
2023-09-08T22:50:41.339Z,100879.61
2023-09-08T22:53:14.417Z,100877.27
2023-09-08T22:55:42.796Z,100878.21
2023-09-08T22:58:11.059Z,100869.66
2023-09-08T23:00:39.219Z,100870.91
2023-09-08T23:03:07.173Z,100875.23
2023-09-08T23:05:35.785Z,100873.80
2023-09-08T23:08:04.168Z,100872.33
2023-09-08T23:10:32.180Z,100874.83
2023-09-08T23:13:00.036Z,100876.56
2023-09-08T23:15:29.997Z,100874.34
2023-09-08T23:17:58.063Z,100875.07
2023-09-08T23:20:26.601Z,100872.40
2023-09-08T23:22:54.482Z,100870.76
2023-09-08T23:25:22.398Z,100870.13
2023-09-08T23:27:50.283Z,100868.09
2023-09-08T23:30:18.279Z,100862.29
2023-09-08T23:32:46.684Z,100863.31
2023-09-08T23:35:14.631Z,100864.12
2023-09-08T23:37:43.752Z,100860.40
2023-09-08T23:40:13.078Z,100857.77
2023-09-08T23:42:41.166Z,100854.46
2023-09-08T23:45:10.323Z,100858.14
2023-09-08T23:47:38.659Z,100854.95
2023-09-08T23:50:07.724Z,100855.69
2023-09-08T23:52:35.688Z,100856.43
2023-09-08T23:55:04.281Z,100854.48
2023-09-08T23:57:32.228Z,100852.70
